createdAt,value
2018-06-03T00:00:51.307Z,18.30
2018-06-03T00:01:54.557Z,18.40
2018-06-03T00:02:58.528Z,18.40
2018-06-03T00:04:02.572Z,18.40
2018-06-03T00:05:05.775Z,18.40
2018-06-03T00:06:09.005Z,18.40
2018-06-03T00:07:12.990Z,18.40
2018-06-03T00:08:17.100Z,18.40
2018-06-03T00:09:21.106Z,18.40
2018-06-03T00:10:25.077Z,18.40
2018-06-03T00:11:28.989Z,18.40
2018-06-03T00:12:32.984Z,18.40
2018-06-03T00:13:36.969Z,18.40
2018-06-03T00:14:40.195Z,18.40
2018-06-03T00:15:43.414Z,18.40
2018-06-03T00:16:46.652Z,18.40
2018-06-03T00:17:50.659Z,18.40
2018-06-03T00:18:53.904Z,18.40
2018-06-03T00:19:57.113Z,18.30
2018-06-03T00:21:12.929Z,18.30
2018-06-03T00:22:17.581Z,18.30
2018-06-03T00:23:20.799Z,18.30
2018-06-03T00:24:24.082Z,18.30
2018-06-03T00:25:27.326Z,18.30
2018-06-03T00:26:30.571Z,18.20
2018-06-03T00:27:33.981Z,18.20
2018-06-03T00:28:37.944Z,18.20
2018-06-03T00:29:41.182Z,18.20
2018-06-03T00:30:44.547Z,18.20
2018-06-03T00:31:47.754Z,18.10
2018-06-03T00:32:50.969Z,18.10
2018-06-03T00:33:54.202Z,18.10
2018-06-03T00:34:57.451Z,18.10
2018-06-03T00:36:13.370Z,18.10
2018-06-03T00:37:17.337Z,18.10
2018-06-03T00:38:21.328Z,18.10
2018-06-03T00:39:25.311Z,18.20
2018-06-03T00:40:28.633Z,18.20
2018-06-03T00:41:31.757Z,18.20
2018-06-03T00:42:35.042Z,18.10
2018-06-03T00:43:38.270Z,18.10
2018-06-03T00:44:42.343Z,18.00
2018-06-03T00:45:45.589Z,18.00
2018-06-03T00:46:48.782Z,18.10
2018-06-03T00:47:52.012Z,18.00
2018-06-03T00:48:55.273Z,18.00
2018-06-03T00:49:58.591Z,18.00
2018-06-03T00:51:02.600Z,18.00
2018-06-03T00:52:06.602Z,17.90
2018-06-03T00:53:10.583Z,17.80
2018-06-03T00:54:14.592Z,17.80
2018-06-03T00:55:17.804Z,17.80
2018-06-03T00:56:33.024Z,17.80
2018-06-03T00:57:36.235Z,17.70
2018-06-03T00:58:39.480Z,17.60
2018-06-03T00:59:42.804Z,17.60
2018-06-03T01:00:46.016Z,17.70
2018-06-03T01:01:49.220Z,17.70
2018-06-03T01:02:52.438Z,17.80
2018-06-03T01:03:56.452Z,17.80
2018-06-03T01:05:00.435Z,17.90
2018-06-03T01:06:04.439Z,17.90
2018-06-03T01:07:08.446Z,17.90
2018-06-03T01:08:12.422Z,17.90
2018-06-03T01:09:15.639Z,17.90
2018-06-03T01:10:18.924Z,17.90
2018-06-03T01:11:22.134Z,17.90
2018-06-03T01:12:25.351Z,17.90
2018-06-03T01:13:28.554Z,17.90
2018-06-03T01:14:32.538Z,18.00
2018-06-03T01:15:35.808Z,18.00
2018-06-03T01:16:39.067Z,18.00
2018-06-03T01:17:42.285Z,18.00
2018-06-03T01:18:45.482Z,17.90
2018-06-03T01:19:49.509Z,17.90
2018-06-03T01:20:53.489Z,17.90
2018-06-03T01:21:57.511Z,17.90
2018-06-03T01:23:00.736Z,17.90
2018-06-03T01:24:03.968Z,17.80
2018-06-03T01:25:07.171Z,17.90
2018-06-03T01:26:10.429Z,17.80
2018-06-03T01:27:14.406Z,17.80
2018-06-03T01:28:17.639Z,17.70
2018-06-03T01:29:20.861Z,17.80
2018-06-03T01:30:24.081Z,17.70
2018-06-03T01:31:28.328Z,17.60
2018-06-03T01:32:31.528Z,17.60
2018-06-03T01:33:34.751Z,17.70
2018-06-03T01:34:37.971Z,17.70
2018-06-03T01:35:41.194Z,17.70
2018-06-03T01:36:45.333Z,17.60
2018-06-03T01:37:48.641Z,17.60
2018-06-03T01:38:51.876Z,17.60
2018-06-03T01:39:55.861Z,17.70
2018-06-03T01:40:59.222Z,17.70
2018-06-03T01:42:02.743Z,17.70
2018-06-03T01:43:06.445Z,17.60
2018-06-03T01:44:09.662Z,17.70
2018-06-03T01:45:12.886Z,17.60
2018-06-03T01:46:16.101Z,17.60
2018-06-03T01:47:19.393Z,17.60
2018-06-03T01:48:23.358Z,17.60
2018-06-03T01:49:26.573Z,17.60
2018-06-03T01:50:29.995Z,17.50
2018-06-03T01:51:33.224Z,17.50
2018-06-03T01:52:37.217Z,17.60
2018-06-03T01:53:40.481Z,17.60
2018-06-03T01:54:43.806Z,17.60
2018-06-03T01:55:47.797Z,17.60
2018-06-03T01:56:51.788Z,17.60
2018-06-03T01:57:55.821Z,17.50
2018-06-03T01:58:59.050Z,17.50
2018-06-03T02:00:02.295Z,17.50
2018-06-03T02:01:05.755Z,17.50
2018-06-03T02:02:09.764Z,17.50
2018-06-03T02:03:13.733Z,17.50
2018-06-03T02:04:16.945Z,17.50
2018-06-03T02:05:20.958Z,17.40
2018-06-03T02:06:24.284Z,17.40
2018-06-03T02:07:27.492Z,17.50
2018-06-03T02:08:30.808Z,17.40
2018-06-03T02:09:34.029Z,17.40
2018-06-03T02:10:37.243Z,17.30
2018-06-03T02:11:40.471Z,17.30
2018-06-03T02:12:43.696Z,17.30
2018-06-03T02:13:46.904Z,17.40
2018-06-03T02:14:50.878Z,17.40
2018-06-03T02:15:54.088Z,17.40
2018-06-03T02:16:58.067Z,17.50
2018-06-03T02:18:01.283Z,17.50
2018-06-03T02:19:04.540Z,17.60
2018-06-03T02:20:08.589Z,17.50
2018-06-03T02:21:11.825Z,17.50
2018-06-03T02:22:15.269Z,17.50
2018-06-03T02:23:18.536Z,17.40
2018-06-03T02:24:21.731Z,17.40
2018-06-03T02:25:25.025Z,17.40
2018-06-03T02:26:28.287Z,17.40
2018-06-03T02:27:31.505Z,17.40
2018-06-03T02:28:34.723Z,17.30
2018-06-03T02:29:39.423Z,17.30
2018-06-03T02:30:43.468Z,17.20
2018-06-03T02:31:46.676Z,17.30
2018-06-03T02:32:49.894Z,17.30
2018-06-03T02:33:53.215Z,17.20
2018-06-03T02:34:56.467Z,17.20
2018-06-03T02:35:59.668Z,17.20
2018-06-03T02:37:02.885Z,17.30
2018-06-03T02:38:06.115Z,17.20
2018-06-03T02:39:09.346Z,17.20
2018-06-03T02:40:12.576Z,17.10
2018-06-03T02:41:16.575Z,17.20
2018-06-03T02:42:19.802Z,17.10
2018-06-03T02:43:23.035Z,17.00
2018-06-03T02:44:26.248Z,17.00
2018-06-03T02:45:29.479Z,17.00
2018-06-03T02:46:32.691Z,17.00
2018-06-03T02:47:36.684Z,17.00
2018-06-03T02:48:39.892Z,16.90
2018-06-03T02:49:43.859Z,17.00
2018-06-03T02:50:47.120Z,17.00
2018-06-03T02:51:50.332Z,17.00
2018-06-03T02:52:53.549Z,17.10
2018-06-03T02:53:56.862Z,17.00
2018-06-03T02:55:00.108Z,17.00
2018-06-03T02:56:04.131Z,17.00
2018-06-03T02:57:07.359Z,17.00
2018-06-03T02:58:10.585Z,17.00
2018-06-03T02:59:13.808Z,16.90
2018-06-03T03:00:17.033Z,16.90
2018-06-03T03:01:21.026Z,17.00
2018-06-03T03:02:25.050Z,17.00
2018-06-03T03:03:28.249Z,17.00
2018-06-03T03:04:31.483Z,17.00
2018-06-03T03:05:35.517Z,16.90
2018-06-03T03:06:38.797Z,16.90
2018-06-03T03:07:42.043Z,17.00
2018-06-03T03:08:45.263Z,16.90
2018-06-03T03:09:48.470Z,17.00
2018-06-03T03:10:51.716Z,17.00
2018-06-03T03:11:54.930Z,17.00
2018-06-03T03:12:58.129Z,16.90
2018-06-03T03:14:01.358Z,16.90
2018-06-03T03:15:05.340Z,16.90
2018-06-03T03:16:08.561Z,16.90
2018-06-03T03:17:11.819Z,17.00
2018-06-03T03:18:15.097Z,17.00
2018-06-03T03:19:18.284Z,17.00
2018-06-03T03:20:22.262Z,17.00
2018-06-03T03:21:25.527Z,17.00
2018-06-03T03:22:28.751Z,17.00
2018-06-03T03:23:32.792Z,17.00
2018-06-03T03:24:36.057Z,17.00
2018-06-03T03:25:39.357Z,17.00
2018-06-03T03:26:42.565Z,17.00
2018-06-03T03:27:45.830Z,17.00
2018-06-03T03:28:49.069Z,17.00
2018-06-03T03:29:53.031Z,16.90
2018-06-03T03:30:56.250Z,16.90
2018-06-03T03:32:00.229Z,16.90
2018-06-03T03:33:03.438Z,16.90
2018-06-03T03:34:07.427Z,16.80
2018-06-03T03:35:11.442Z,16.80
2018-06-03T03:36:15.509Z,16.80
2018-06-03T03:37:18.818Z,16.80
2018-06-03T03:38:21.997Z,16.80
2018-06-03T03:39:25.231Z,16.80
2018-06-03T03:40:28.440Z,16.90
2018-06-03T03:41:31.654Z,16.90
2018-06-03T03:42:34.860Z,16.80
2018-06-03T03:43:38.066Z,16.80
2018-06-03T03:44:41.275Z,16.80
2018-06-03T03:45:45.271Z,16.60
2018-06-03T03:46:48.467Z,16.60
2018-06-03T03:47:51.730Z,16.70
2018-06-03T03:48:54.978Z,16.60
2018-06-03T03:49:58.197Z,16.60
2018-06-03T03:51:01.439Z,16.70
2018-06-03T03:52:05.443Z,16.70
2018-06-03T03:53:08.664Z,16.70
2018-06-03T03:54:11.899Z,16.70
2018-06-03T03:55:15.148Z,16.80
2018-06-03T03:56:18.364Z,16.80
2018-06-03T03:57:21.574Z,16.80
2018-06-03T03:58:24.817Z,16.90
2018-06-03T03:59:28.796Z,16.90
2018-06-03T04:00:32.014Z,16.90
2018-06-03T04:01:35.237Z,16.90
2018-06-03T04:02:38.435Z,17.00
2018-06-03T04:03:41.650Z,17.00
2018-06-03T04:04:45.669Z,16.90
2018-06-03T04:05:48.896Z,17.00
2018-06-03T04:06:53.665Z,16.90
2018-06-03T04:07:56.874Z,16.90
2018-06-03T04:09:00.128Z,16.90
2018-06-03T04:10:03.401Z,17.00
2018-06-03T04:11:07.387Z,16.90
2018-06-03T04:12:10.602Z,16.80
2018-06-03T04:13:13.893Z,16.80
2018-06-03T04:14:17.107Z,16.80
2018-06-03T04:15:20.336Z,16.90
2018-06-03T04:16:24.341Z,16.90
2018-06-03T04:17:28.320Z,17.00
2018-06-03T04:18:31.528Z,17.00
2018-06-03T04:19:34.787Z,17.00
2018-06-03T04:20:38.794Z,16.90
2018-06-03T04:21:42.757Z,17.00
2018-06-03T04:22:46.814Z,16.90
2018-06-03T04:23:50.054Z,16.90
2018-06-03T04:24:53.242Z,16.90
2018-06-03T04:25:56.458Z,16.90
2018-06-03T04:26:59.669Z,16.90
2018-06-03T04:28:02.922Z,16.90
2018-06-03T04:29:06.923Z,16.90
2018-06-03T04:30:10.256Z,16.80
2018-06-03T04:31:13.491Z,16.80
2018-06-03T04:32:17.483Z,16.80
2018-06-03T04:33:21.474Z,16.80
2018-06-03T04:34:25.503Z,16.80
2018-06-03T04:35:29.475Z,16.80
2018-06-03T04:36:33.465Z,16.80
2018-06-03T04:37:38.180Z,16.80
2018-06-03T04:38:41.396Z,16.80
2018-06-03T04:39:44.752Z,16.80
2018-06-03T04:40:47.986Z,16.90
2018-06-03T04:41:51.208Z,16.90
2018-06-03T04:42:54.428Z,16.90
2018-06-03T04:43:57.657Z,16.80
2018-06-03T04:45:00.878Z,16.80
2018-06-03T04:46:04.866Z,16.90
2018-06-03T04:47:08.875Z,16.80
2018-06-03T04:48:12.871Z,16.90
2018-06-03T04:49:16.867Z,17.00
2018-06-03T04:50:20.080Z,16.90
2018-06-03T04:51:23.334Z,17.00
2018-06-03T04:52:26.558Z,17.00
2018-06-03T04:53:29.803Z,17.00
2018-06-03T04:54:33.854Z,17.10
2018-06-03T04:55:37.046Z,17.00
2018-06-03T04:56:40.285Z,17.00
2018-06-03T04:57:44.297Z,17.00
2018-06-03T04:58:47.575Z,17.10
2018-06-03T04:59:50.812Z,17.00
2018-06-03T05:00:54.040Z,17.00
2018-06-03T05:01:58.030Z,17.00
2018-06-03T05:03:02.046Z,17.00
2018-06-03T05:04:05.334Z,17.00
2018-06-03T05:05:08.561Z,17.00
2018-06-03T05:06:11.814Z,17.00
2018-06-03T05:07:15.090Z,17.00
2018-06-03T05:08:18.322Z,17.10
2018-06-03T05:09:21.567Z,17.20
2018-06-03T05:10:24.786Z,17.20
2018-06-03T05:11:28.038Z,17.20
2018-06-03T05:12:31.247Z,17.20
2018-06-03T05:13:34.479Z,17.20
2018-06-03T05:14:37.718Z,17.20
2018-06-03T05:15:40.910Z,17.20
2018-06-03T05:16:44.131Z,17.20
2018-06-03T05:17:47.406Z,17.20
2018-06-03T05:18:50.586Z,17.30
2018-06-03T05:19:53.868Z,17.30
2018-06-03T05:20:57.849Z,17.30
2018-06-03T05:22:01.051Z,17.30
2018-06-03T05:23:04.298Z,17.20
2018-06-03T05:24:07.534Z,17.30
2018-06-03T05:25:10.755Z,17.30
2018-06-03T05:26:14.015Z,17.20
2018-06-03T05:27:17.278Z,17.30
2018-06-03T05:28:20.510Z,17.30
2018-06-03T05:29:23.735Z,17.30
2018-06-03T05:30:26.972Z,17.30
2018-06-03T05:31:30.207Z,17.40
2018-06-03T05:32:33.431Z,17.50
2018-06-03T05:33:36.654Z,17.50
2018-06-03T05:34:40.632Z,17.50
2018-06-03T05:35:43.904Z,17.50
2018-06-03T05:36:47.135Z,17.50
2018-06-03T05:37:51.121Z,17.50
2018-06-03T05:38:55.111Z,17.60
2018-06-03T05:39:59.090Z,17.50
2018-06-03T05:41:02.415Z,17.50
2018-06-03T05:42:05.631Z,17.60
2018-06-03T05:43:08.846Z,17.60
2018-06-03T05:44:12.052Z,17.70
2018-06-03T05:45:16.083Z,17.70
2018-06-03T05:46:19.333Z,17.70
2018-06-03T05:47:22.594Z,17.70
2018-06-03T05:48:25.914Z,17.80
2018-06-03T05:49:29.191Z,17.80
2018-06-03T05:50:33.187Z,17.80
2018-06-03T05:51:37.202Z,17.80
2018-06-03T05:52:41.177Z,17.80
2018-06-03T05:53:44.422Z,17.80
2018-06-03T05:54:47.642Z,17.80
2018-06-03T05:55:50.884Z,17.90
2018-06-03T05:56:54.088Z,17.90
2018-06-03T05:57:57.301Z,17.90
2018-06-03T05:59:01.291Z,18.00
2018-06-03T06:00:05.280Z,18.10
2018-06-03T06:01:08.498Z,18.00
2018-06-03T06:02:12.469Z,18.20
2018-06-03T06:03:15.678Z,18.20
2018-06-03T06:04:19.655Z,18.20
2018-06-03T06:05:22.973Z,18.20
2018-06-03T06:06:26.959Z,18.30
2018-06-03T06:07:30.973Z,18.40
2018-06-03T06:08:34.184Z,18.30
2018-06-03T06:09:37.436Z,18.40
2018-06-03T06:10:40.667Z,18.40
2018-06-03T06:11:43.905Z,18.40
2018-06-03T06:12:47.126Z,18.40
2018-06-03T06:13:50.368Z,18.40
2018-06-03T06:14:57.698Z,18.50
2018-06-03T06:16:00.894Z,18.50
2018-06-03T06:17:04.151Z,18.60
2018-06-03T06:18:07.366Z,18.60
2018-06-03T06:19:11.356Z,18.70
2018-06-03T06:20:14.631Z,18.70
2018-06-03T06:21:17.807Z,18.70
2018-06-03T06:22:21.014Z,18.90
2018-06-03T06:23:25.040Z,19.00
2018-06-03T06:24:29.754Z,19.00
2018-06-03T06:25:33.733Z,19.00
2018-06-03T06:26:37.055Z,19.00
2018-06-03T06:27:41.036Z,19.00
2018-06-03T06:28:45.128Z,19.00
2018-06-03T06:29:49.129Z,19.10
2018-06-03T06:30:52.482Z,19.00
2018-06-03T06:31:55.661Z,19.10
2018-06-03T06:32:58.874Z,19.20
2018-06-03T06:34:02.853Z,19.20
2018-06-03T06:35:06.081Z,19.20
2018-06-03T06:36:09.321Z,19.30
2018-06-03T06:37:12.558Z,19.40
2018-06-03T06:38:15.883Z,19.40
2018-06-03T06:39:20.000Z,19.60
2018-06-03T06:40:23.244Z,19.60
2018-06-03T06:41:26.458Z,19.60
2018-06-03T06:42:29.673Z,19.70
2018-06-03T06:43:33.701Z,19.70
2018-06-03T06:44:36.916Z,19.70
2018-06-03T06:45:40.194Z,19.80
2018-06-03T06:46:43.396Z,19.80
2018-06-03T06:47:46.650Z,19.70
2018-06-03T06:48:49.903Z,19.70
2018-06-03T06:49:53.118Z,19.80
2018-06-03T06:50:56.341Z,19.90
2018-06-03T06:51:59.549Z,19.90
2018-06-03T06:53:02.837Z,20.00
2018-06-03T06:54:06.064Z,20.00
2018-06-03T06:55:09.320Z,20.00
2018-06-03T06:56:12.529Z,20.00
2018-06-03T06:57:15.724Z,20.00
2018-06-03T06:58:18.953Z,20.00
2018-06-03T06:59:22.270Z,20.00
2018-06-03T07:01:03.618Z,20.10
2018-06-03T07:02:08.266Z,20.20
2018-06-03T07:03:12.441Z,20.20
2018-06-03T07:04:16.485Z,20.20
2018-06-03T07:05:22.026Z,20.20
2018-06-03T07:06:26.704Z,20.30
2018-06-03T07:08:59.776Z,20.30
2018-06-03T07:10:03.850Z,20.30
2018-06-03T07:11:07.986Z,20.30
2018-06-03T07:12:11.990Z,20.40
2018-06-03T07:13:16.062Z,20.40
2018-06-03T07:14:20.067Z,20.50
2018-06-03T07:15:24.117Z,20.50
2018-06-03T07:16:28.087Z,20.50
2018-06-03T07:17:32.123Z,20.50
2018-06-03T07:18:36.150Z,20.50
2018-06-03T07:19:40.240Z,20.50
2018-06-03T07:20:44.324Z,20.50
2018-06-03T07:21:48.363Z,20.50
2018-06-03T07:22:52.384Z,20.50
2018-06-03T07:23:56.563Z,20.50
2018-06-03T07:25:00.582Z,20.40
2018-06-03T07:26:04.608Z,20.40
2018-06-03T07:27:08.626Z,20.40
2018-06-03T07:28:12.891Z,20.50
2018-06-03T07:29:17.016Z,20.60
2018-06-03T07:30:21.164Z,20.70
2018-06-03T07:31:25.193Z,20.80
2018-06-03T07:32:29.223Z,20.80
2018-06-03T07:33:33.334Z,20.80
2018-06-03T07:35:41.214Z,20.90
2018-06-03T07:36:45.204Z,20.90
2018-06-03T07:38:53.095Z,21.00
2018-06-03T07:39:57.203Z,21.00
2018-06-03T07:41:01.464Z,21.10
2018-06-03T07:42:05.707Z,21.10
2018-06-03T07:43:09.760Z,21.10
2018-06-03T07:44:13.950Z,21.10
2018-06-03T07:46:21.723Z,21.10
2018-06-03T07:47:25.835Z,21.20
2018-06-03T07:48:30.009Z,21.30
2018-06-03T07:49:34.256Z,21.30
2018-06-03T07:50:38.350Z,21.30
2018-06-03T07:51:42.388Z,21.30
2018-06-03T07:52:46.457Z,21.30
2018-06-03T07:53:50.535Z,21.30
2018-06-03T07:54:54.568Z,21.30
2018-06-03T07:55:58.607Z,21.30
2018-06-03T07:57:02.877Z,21.30
2018-06-03T07:58:06.988Z,21.30
2018-06-03T07:59:10.979Z,21.40
2018-06-03T08:00:15.034Z,21.40
2018-06-03T08:01:19.085Z,21.40
2018-06-03T08:02:23.126Z,21.40
2018-06-03T08:03:27.151Z,21.50
2018-06-03T08:04:31.211Z,21.40
2018-06-03T08:05:35.248Z,21.50
2018-06-03T08:06:39.493Z,21.50
2018-06-03T08:07:43.673Z,21.60
2018-06-03T08:09:51.292Z,21.70
2018-06-03T08:10:55.853Z,21.70
2018-06-03T08:11:59.913Z,21.80
2018-06-03T08:13:04.041Z,21.70
2018-06-03T08:14:08.033Z,21.70
2018-06-03T08:15:12.090Z,21.70
2018-06-03T08:16:16.189Z,21.70
2018-06-03T08:18:24.036Z,21.70
2018-06-03T08:19:28.082Z,21.70
2018-06-03T08:20:32.154Z,21.70
2018-06-03T08:21:36.251Z,21.70
2018-06-03T08:22:40.469Z,21.80
2018-06-03T08:23:44.491Z,21.90
2018-06-03T08:24:48.652Z,21.90
2018-06-03T08:25:52.800Z,22.00
2018-06-03T08:26:56.849Z,22.10
2018-06-03T08:28:00.903Z,22.10
2018-06-03T08:29:05.117Z,22.10
2018-06-03T08:30:09.166Z,22.20
2018-06-03T08:31:13.204Z,22.10
2018-06-03T08:32:17.211Z,22.10
2018-06-03T08:33:27.730Z,22.20
2018-06-03T08:34:31.837Z,22.20
2018-06-03T08:35:35.944Z,22.30
2018-06-03T08:36:40.031Z,22.30
2018-06-03T08:37:44.103Z,22.30
2018-06-03T08:38:48.143Z,22.30
2018-06-03T08:39:52.160Z,22.40
2018-06-03T08:40:56.209Z,22.40
2018-06-03T08:42:00.345Z,22.40
2018-06-03T08:43:04.383Z,22.40
2018-06-03T08:44:08.389Z,22.40
2018-06-03T08:45:12.472Z,22.50
2018-06-03T08:46:16.491Z,22.60
2018-06-03T08:47:20.540Z,22.60
2018-06-03T08:48:24.676Z,22.60
2018-06-03T08:49:28.696Z,22.60
2018-06-03T08:50:32.795Z,22.60
2018-06-03T08:51:36.819Z,22.60
2018-06-03T08:52:40.934Z,22.60
2018-06-03T08:53:44.974Z,22.60
2018-06-03T08:54:49.023Z,22.70
2018-06-03T08:55:53.172Z,22.80
2018-06-03T08:56:57.213Z,22.80
2018-06-03T08:58:01.212Z,22.80
2018-06-03T08:59:05.309Z,22.80
2018-06-03T09:00:09.311Z,22.90
2018-06-03T09:01:13.326Z,22.90
2018-06-03T09:02:17.532Z,23.00
2018-06-03T09:03:21.578Z,23.00
2018-06-03T09:04:25.643Z,23.00
2018-06-03T09:05:29.673Z,23.10
2018-06-03T09:06:33.870Z,23.10
2018-06-03T09:07:37.882Z,23.20
2018-06-03T09:08:41.993Z,23.10
2018-06-03T09:09:46.093Z,23.20
2018-06-03T09:10:50.222Z,23.30
2018-06-03T09:11:54.354Z,23.30
2018-06-03T09:12:58.374Z,23.40
2018-06-03T09:15:06.323Z,23.30
2018-06-03T09:16:10.352Z,23.20
2018-06-03T09:17:14.415Z,23.30
2018-06-03T09:18:18.502Z,23.20
2018-06-03T09:19:22.642Z,23.20
2018-06-03T09:20:26.693Z,23.20
2018-06-03T09:21:31.573Z,23.20
2018-06-03T09:22:35.639Z,23.20
2018-06-03T09:23:39.675Z,23.20
2018-06-03T09:24:43.696Z,23.30
2018-06-03T09:25:47.758Z,23.30
2018-06-03T09:26:51.827Z,23.30
2018-06-03T09:27:55.905Z,23.40
2018-06-03T09:28:59.996Z,23.40
2018-06-03T09:30:04.202Z,23.50
2018-06-03T09:31:08.282Z,23.60
2018-06-03T09:32:12.410Z,23.60
2018-06-03T09:33:16.525Z,23.70
2018-06-03T09:34:20.621Z,23.70
2018-06-03T09:35:24.927Z,23.70
2018-06-03T09:36:28.985Z,23.80
2018-06-03T09:37:33.032Z,23.90
2018-06-03T09:38:37.083Z,23.90
2018-06-03T09:39:41.191Z,23.80
2018-06-03T09:40:45.265Z,23.80
2018-06-03T09:41:49.347Z,23.80
2018-06-03T09:42:53.451Z,23.90
2018-06-03T09:43:57.471Z,23.90
2018-06-03T09:45:01.489Z,23.90
2018-06-03T09:46:05.652Z,23.90
2018-06-03T09:47:09.692Z,23.90
2018-06-03T09:48:13.833Z,23.90
2018-06-03T09:49:17.900Z,23.90
2018-06-03T09:50:22.005Z,24.00
2018-06-03T09:51:26.103Z,24.10
2018-06-03T09:52:30.155Z,24.10
2018-06-03T09:53:40.708Z,24.10
2018-06-03T09:54:44.806Z,24.00
2018-06-03T09:55:48.972Z,24.10
2018-06-03T09:56:53.176Z,24.10
2018-06-03T09:57:57.214Z,24.20
2018-06-03T09:59:01.362Z,24.10
2018-06-03T10:00:05.437Z,24.00
2018-06-03T10:01:09.399Z,24.00
2018-06-03T10:02:13.433Z,24.00
2018-06-03T10:03:17.510Z,24.10
2018-06-03T10:04:21.559Z,24.10
2018-06-03T10:05:25.757Z,24.20
2018-06-03T10:06:29.809Z,24.30
2018-06-03T10:07:33.863Z,24.30
2018-06-03T10:08:37.950Z,24.30
2018-06-03T10:09:41.998Z,24.40
2018-06-03T10:10:46.093Z,24.40
2018-06-03T10:11:50.103Z,24.40
2018-06-03T10:12:54.176Z,24.20
2018-06-03T10:13:58.335Z,24.20
2018-06-03T10:15:02.558Z,24.20
2018-06-03T10:16:06.732Z,24.20
2018-06-03T10:17:10.749Z,24.20
2018-06-03T10:18:14.904Z,24.20
2018-06-03T10:19:18.971Z,24.10
2018-06-03T10:20:23.080Z,24.00
2018-06-03T10:21:27.172Z,24.00
2018-06-03T10:22:31.210Z,24.00
2018-06-03T10:23:35.341Z,24.10
2018-06-03T10:24:39.452Z,24.20
2018-06-03T10:25:43.902Z,24.20
2018-06-03T10:26:47.979Z,24.20
2018-06-03T10:27:52.124Z,24.30
2018-06-03T10:28:56.153Z,24.20
2018-06-03T10:30:00.191Z,24.20
2018-06-03T10:31:04.204Z,24.20
2018-06-03T10:32:08.380Z,24.20
2018-06-03T10:33:12.636Z,24.20
2018-06-03T10:34:16.690Z,24.10
2018-06-03T10:35:20.744Z,24.10
2018-06-03T10:36:24.776Z,24.10
2018-06-03T10:37:28.771Z,24.20
2018-06-03T10:38:32.963Z,24.20
2018-06-03T10:39:36.976Z,24.30
2018-06-03T10:40:41.060Z,24.40
2018-06-03T10:41:45.108Z,24.50
2018-06-03T10:44:56.593Z,24.70
2018-06-03T10:46:00.623Z,24.80
2018-06-03T10:47:04.825Z,24.90
2018-06-03T10:48:09.018Z,24.90
2018-06-03T10:49:13.048Z,24.90
2018-06-03T10:50:17.114Z,24.90
2018-06-03T10:51:21.184Z,24.90
2018-06-03T10:52:25.215Z,24.90
2018-06-03T10:53:29.278Z,24.90
2018-06-03T10:54:33.345Z,25.10
2018-06-03T10:55:37.386Z,25.10
2018-06-03T10:56:41.416Z,25.10
2018-06-03T10:57:45.467Z,25.20
2018-06-03T10:58:49.486Z,25.30
2018-06-03T10:59:53.587Z,25.40
2018-06-03T11:00:57.565Z,25.40
2018-06-03T11:02:01.718Z,25.30
2018-06-03T11:03:05.885Z,25.30
2018-06-03T11:04:09.894Z,25.30
2018-06-03T11:05:13.886Z,25.40
2018-06-03T11:06:17.902Z,25.40
2018-06-03T11:07:21.900Z,25.50
2018-06-03T11:09:29.636Z,25.50
2018-06-03T11:10:33.658Z,25.40
2018-06-03T11:11:37.643Z,25.20
2018-06-03T11:12:41.634Z,25.20
2018-06-03T11:13:45.876Z,25.10
2018-06-03T11:14:49.890Z,25.20
2018-06-03T11:15:53.919Z,25.40
2018-06-03T11:16:57.954Z,25.40
2018-06-03T11:18:02.064Z,25.30
2018-06-03T11:19:06.075Z,25.30
2018-06-03T11:20:10.071Z,25.30
2018-06-03T11:21:14.150Z,25.30
2018-06-03T11:22:18.232Z,25.40
2018-06-03T11:23:22.329Z,25.50
2018-06-03T11:24:26.497Z,25.50
2018-06-03T11:25:30.472Z,25.60
2018-06-03T11:26:34.627Z,25.60
2018-06-03T11:27:38.760Z,25.60
2018-06-03T11:29:46.526Z,25.60
2018-06-03T11:30:50.574Z,25.60
2018-06-03T11:31:54.646Z,25.60
2018-06-03T11:32:59.016Z,25.60
2018-06-03T11:34:03.007Z,25.60
2018-06-03T11:35:07.199Z,25.50
2018-06-03T11:36:11.264Z,25.50
2018-06-03T11:37:15.342Z,25.50
2018-06-03T11:38:19.364Z,25.60
2018-06-03T11:39:23.387Z,25.70
2018-06-03T11:40:27.451Z,25.70
2018-06-03T11:41:31.630Z,25.70
2018-06-03T11:42:35.748Z,25.70
2018-06-03T11:43:39.845Z,25.70
2018-06-03T11:44:43.876Z,25.60
2018-06-03T11:45:47.915Z,25.60
2018-06-03T11:46:51.961Z,25.60
2018-06-03T11:47:55.994Z,25.70
2018-06-03T11:49:00.166Z,25.70
2018-06-03T11:50:04.200Z,25.80
2018-06-03T11:51:08.204Z,25.80
2018-06-03T11:54:19.530Z,25.80
2018-06-03T11:55:23.513Z,25.80
2018-06-03T11:56:38.952Z,25.80
2018-06-03T11:57:57.894Z,25.90
2018-06-03T11:59:12.362Z,25.90
2018-06-03T12:00:27.104Z,25.80
2018-06-03T12:02:39.157Z,25.90
2018-06-03T12:03:47.756Z,25.90
2018-06-03T12:04:54.935Z,26.00
2018-06-03T12:06:04.442Z,26.00
2018-06-03T12:07:17.975Z,26.00
2018-06-03T12:08:25.713Z,26.00
2018-06-03T12:09:36.124Z,25.90
2018-06-03T12:10:46.648Z,25.90
2018-06-03T12:11:53.135Z,26.00
2018-06-03T12:13:08.815Z,26.00
2018-06-03T12:15:30.995Z,26.20
2018-06-03T12:16:58.064Z,26.20
2018-06-03T12:18:08.723Z,26.20
2018-06-03T12:20:26.429Z,26.30
2018-06-03T12:21:36.717Z,26.40
2018-06-03T12:22:44.680Z,26.40
2018-06-03T12:24:59.474Z,26.70
2018-06-03T12:26:08.156Z,26.70
2018-06-03T12:27:18.294Z,26.70
2018-06-03T12:28:39.765Z,26.80
2018-06-03T12:29:46.075Z,26.80
2018-06-03T12:30:54.801Z,26.90
2018-06-03T12:32:04.780Z,27.00
2018-06-03T12:33:11.300Z,27.00
2018-06-03T12:35:26.271Z,26.90
2018-06-03T12:36:33.248Z,27.00
2018-06-03T12:37:44.540Z,27.20
2018-06-03T12:38:55.095Z,27.20
2018-06-03T12:40:12.204Z,27.20
2018-06-03T12:41:20.770Z,27.10
2018-06-03T12:42:28.979Z,27.20
2018-06-03T12:43:35.098Z,27.20
2018-06-03T12:45:57.054Z,27.10
2018-06-03T12:47:09.324Z,27.10
2018-06-03T12:48:15.163Z,27.40
2018-06-03T12:49:23.805Z,27.70
2018-06-03T12:50:33.091Z,27.80
2018-06-03T12:51:46.108Z,28.00
2018-06-03T12:52:57.593Z,27.80
2018-06-03T12:55:19.676Z,27.90
2018-06-03T12:56:26.928Z,28.00
2018-06-03T12:57:33.860Z,28.20
2018-06-03T12:58:39.943Z,28.40
2018-06-03T12:59:46.403Z,28.40
2018-06-03T13:02:09.247Z,28.30
2018-06-03T13:03:21.936Z,28.30
2018-06-03T13:04:34.881Z,28.50
2018-06-03T13:05:44.433Z,28.70
2018-06-03T13:06:51.668Z,28.70
2018-06-03T13:08:00.012Z,28.50
2018-06-03T13:09:07.866Z,28.20
2018-06-03T13:10:14.158Z,27.90
2018-06-03T13:11:21.393Z,27.80
2018-06-03T13:12:27.852Z,27.60
2018-06-03T13:13:35.324Z,27.40
2018-06-03T13:14:42.301Z,27.30
2018-06-03T13:15:51.772Z,27.20
2018-06-03T13:16:59.448Z,27.20
2018-06-03T13:18:05.708Z,27.10
2018-06-03T13:19:14.796Z,27.10
2018-06-03T13:20:21.763Z,27.00
2018-06-03T13:21:28.899Z,27.00
2018-06-03T13:22:36.597Z,26.90
2018-06-03T13:23:45.029Z,26.80
2018-06-03T13:24:55.634Z,26.70
2018-06-03T13:26:02.295Z,26.80
2018-06-03T13:27:12.410Z,27.20
2018-06-03T13:28:20.239Z,27.60
2018-06-03T13:29:29.709Z,28.10
2018-06-03T13:30:46.703Z,28.50
2018-06-03T13:31:56.683Z,28.80
2018-06-03T13:33:03.347Z,29.10
2018-06-03T13:34:11.053Z,29.20
2018-06-03T13:35:19.100Z,29.50
2018-06-03T13:37:43.331Z,29.60
2018-06-03T13:38:50.974Z,29.80
2018-06-03T13:39:58.277Z,29.90
2018-06-03T13:41:05.980Z,29.90
2018-06-03T13:42:12.851Z,29.80
2018-06-03T13:43:20.129Z,29.90
2018-06-03T13:44:31.894Z,29.70
2018-06-03T13:45:37.547Z,29.60
2018-06-03T13:46:43.549Z,29.50
2018-06-03T13:47:48.781Z,29.10
2018-06-03T13:48:55.340Z,28.70
2018-06-03T13:50:04.285Z,28.50
2018-06-03T13:52:16.911Z,28.10
2018-06-03T13:53:23.317Z,27.80
2018-06-03T13:54:30.271Z,27.70
2018-06-03T13:55:43.764Z,27.60
2018-06-03T13:56:52.050Z,27.80
2018-06-03T13:57:59.941Z,28.20
2018-06-03T13:59:07.788Z,28.60
2018-06-03T14:00:15.737Z,28.80
2018-06-03T14:01:24.859Z,29.20
2018-06-03T14:02:35.881Z,29.50
2018-06-03T14:04:51.196Z,29.90
2018-06-03T14:05:58.988Z,30.10
2018-06-03T14:07:07.446Z,30.30
2018-06-03T14:08:18.341Z,30.30
2018-06-03T14:09:24.407Z,30.30
2018-06-03T14:10:34.032Z,30.30
2018-06-03T14:11:41.198Z,30.20
2018-06-03T14:12:49.919Z,30.10
2018-06-03T14:14:00.680Z,30.00
2018-06-03T14:15:17.117Z,30.00
2018-06-03T14:17:35.748Z,30.30
2018-06-03T14:18:40.964Z,30.30
2018-06-03T14:19:47.416Z,30.30
2018-06-03T14:20:55.290Z,30.20